createdAt,value
2022-11-14T00:02:44.255Z,37.07
2022-11-14T00:05:30.193Z,39.50
2022-11-14T00:08:20.650Z,39.90
2022-11-14T00:11:06.709Z,41.17
2022-11-14T00:13:52.770Z,37.03
2022-11-14T00:16:38.256Z,41.83
2022-11-14T00:19:23.672Z,40.15
2022-11-14T00:22:09.999Z,37.22
2022-11-14T00:24:55.485Z,36.53
2022-11-14T00:27:40.957Z,33.90
2022-11-14T00:30:28.543Z,39.58
2022-11-14T00:33:19.886Z,38.03
2022-11-14T00:36:06.381Z,34.13
2022-11-14T00:38:55.386Z,30.58
2022-11-14T00:41:42.210Z,36.30
2022-11-14T00:44:28.088Z,32.77
2022-11-14T00:47:13.755Z,28.37
2022-11-14T00:49:59.288Z,26.90
2022-11-14T00:52:45.011Z,25.17
2022-11-14T00:55:31.419Z,24.47
2022-11-14T00:58:17.319Z,23.55
2022-11-14T01:01:02.808Z,25.50
2022-11-14T01:03:50.877Z,24.60
2022-11-14T01:06:36.441Z,26.10
2022-11-14T01:09:22.198Z,26.47
2022-11-14T01:12:08.168Z,25.50
2022-11-14T01:14:53.608Z,24.93
2022-11-14T01:17:39.346Z,24.90
2022-11-14T01:20:25.189Z,26.67
2022-11-14T01:23:13.135Z,24.60
2022-11-14T01:26:08.894Z,23.33
2022-11-14T01:28:54.706Z,24.23
2022-11-14T01:31:40.514Z,26.30
2022-11-14T01:34:26.634Z,24.75
2022-11-14T01:37:12.614Z,22.08
2022-11-14T01:39:58.550Z,21.57
2022-11-14T01:43:19.270Z,19.50
2022-11-14T01:46:07.407Z,20.90
2022-11-14T01:48:58.614Z,20.03
2022-11-14T01:54:43.309Z,17.73
2022-11-14T01:57:43.221Z,19.67
2022-11-14T02:00:29.200Z,19.38
2022-11-14T02:03:16.550Z,19.05
2022-11-14T02:06:04.777Z,19.23
2022-11-14T02:08:52.446Z,16.77
2022-11-14T02:11:46.448Z,17.25
2022-11-14T02:14:33.546Z,16.30
2022-11-14T02:17:29.426Z,15.45
2022-11-14T02:20:20.896Z,15.83
2022-11-14T02:23:06.746Z,18.67
2022-11-14T02:25:52.661Z,17.15
2022-11-14T02:28:38.502Z,18.83
2022-11-14T02:31:24.554Z,18.00
2022-11-14T02:34:10.461Z,17.95
2022-11-14T02:36:57.098Z,17.73
2022-11-14T02:39:43.016Z,16.65
2022-11-14T02:42:28.696Z,15.15
2022-11-14T02:45:14.660Z,16.58
2022-11-14T02:48:00.616Z,15.50
2022-11-14T02:50:49.659Z,15.18
2022-11-14T02:53:35.435Z,15.73
2022-11-14T02:56:21.503Z,15.63
2022-11-14T02:59:07.441Z,14.88
2022-11-14T03:01:53.085Z,16.33
2022-11-14T03:04:39.181Z,15.40
2022-11-14T03:07:24.762Z,16.35
2022-11-14T03:10:11.316Z,18.52
2022-11-14T03:12:57.680Z,23.40
2022-11-14T03:15:43.522Z,23.63
2022-11-14T03:18:29.432Z,23.02
2022-11-14T03:21:19.258Z,22.35
2022-11-14T03:24:05.617Z,19.38
2022-11-14T03:26:51.930Z,19.35
2022-11-14T03:29:37.606Z,18.70
2022-11-14T03:32:23.225Z,17.20
2022-11-14T03:35:10.298Z,19.35
2022-11-14T03:37:56.918Z,19.80
2022-11-14T03:40:42.892Z,19.15
2022-11-14T03:43:33.823Z,18.08
2022-11-14T03:46:19.982Z,18.58
2022-11-14T03:49:05.717Z,19.40
2022-11-14T03:51:51.401Z,18.45
2022-11-14T03:54:38.279Z,20.17
2022-11-14T03:57:24.140Z,19.27
2022-11-14T04:00:10.901Z,21.30
2022-11-14T04:02:57.829Z,20.30
2022-11-14T04:05:47.065Z,22.17
2022-11-14T04:08:33.297Z,18.02
2022-11-14T04:11:19.930Z,17.85
2022-11-14T04:14:05.933Z,19.80
2022-11-14T04:16:51.813Z,19.92
2022-11-14T04:19:37.787Z,19.08
2022-11-14T04:22:23.769Z,17.80
2022-11-14T04:25:10.038Z,19.20
2022-11-14T04:27:55.700Z,17.55
2022-11-14T04:30:42.508Z,17.87
2022-11-14T04:33:28.768Z,17.93
2022-11-14T04:36:14.744Z,16.37
2022-11-14T04:39:01.436Z,15.68
2022-11-14T04:41:47.129Z,15.87
2022-11-14T04:44:33.052Z,16.42
2022-11-14T04:47:19.152Z,15.82
2022-11-14T04:50:05.848Z,15.15
2022-11-14T04:52:53.669Z,16.27
2022-11-14T04:55:39.367Z,16.10
2022-11-14T04:58:25.208Z,15.53
2022-11-14T05:01:13.694Z,16.23
2022-11-14T05:03:59.574Z,15.43
2022-11-14T05:06:45.297Z,17.90
2022-11-14T05:09:31.317Z,19.77
2022-11-14T05:12:17.245Z,19.07
2022-11-14T05:15:02.700Z,18.50
2022-11-14T05:17:48.264Z,16.67
2022-11-14T05:20:34.102Z,19.38
2022-11-14T05:23:24.473Z,20.20
2022-11-14T05:26:14.785Z,21.00
2022-11-14T05:29:00.866Z,19.60
2022-11-14T05:31:46.697Z,18.77
2022-11-14T05:34:32.613Z,18.40
2022-11-14T05:37:18.283Z,16.92
2022-11-14T05:40:05.785Z,18.48
2022-11-14T05:42:56.694Z,18.03
2022-11-14T05:45:42.405Z,20.73
2022-11-14T05:48:28.973Z,20.08
2022-11-14T05:51:15.383Z,18.85
2022-11-14T05:54:01.055Z,19.60
2022-11-14T05:56:47.089Z,20.30
2022-11-14T05:59:32.603Z,18.37
2022-11-14T06:02:18.248Z,17.50
2022-11-14T06:05:04.357Z,18.10
2022-11-14T06:07:57.354Z,22.10
2022-11-14T06:10:42.869Z,23.53
2022-11-14T06:13:28.520Z,22.10
2022-11-14T06:16:18.050Z,23.87
2022-11-14T06:19:05.392Z,22.47
2022-11-14T06:21:51.633Z,22.23
2022-11-14T06:24:37.714Z,22.48
2022-11-14T06:27:25.172Z,20.67
2022-11-14T06:30:12.041Z,20.48
2022-11-14T06:33:01.334Z,21.87
2022-11-14T06:35:46.890Z,22.80
2022-11-14T06:38:36.104Z,21.67
2022-11-14T06:41:23.236Z,22.85
2022-11-14T06:44:09.768Z,22.50
2022-11-14T06:46:56.641Z,22.65
2022-11-14T06:49:42.725Z,23.33
2022-11-14T06:52:28.697Z,20.98
2022-11-14T06:55:14.239Z,20.92
2022-11-14T06:57:59.784Z,19.58
2022-11-14T07:00:45.200Z,21.65
2022-11-14T07:03:31.297Z,22.55
2022-11-14T07:06:23.360Z,24.67
2022-11-14T07:09:10.943Z,23.90
2022-11-14T07:11:56.638Z,24.23
2022-11-14T07:14:43.484Z,21.70
2022-11-14T07:17:31.416Z,19.40
2022-11-14T07:20:20.706Z,19.50
2022-11-14T07:23:06.186Z,18.40
2022-11-14T07:25:52.163Z,20.55
2022-11-14T07:28:45.919Z,20.08
2022-11-14T07:31:33.859Z,16.75
2022-11-14T07:34:19.728Z,15.20
2022-11-14T07:37:05.749Z,16.20
2022-11-14T07:39:51.817Z,14.90
2022-11-14T07:42:37.806Z,15.45
2022-11-14T07:45:23.538Z,13.27
2022-11-14T07:48:09.328Z,15.07
2022-11-14T07:51:03.835Z,14.70
2022-11-14T07:53:55.932Z,12.65
2022-11-14T07:56:41.390Z,13.02
2022-11-14T07:59:26.978Z,12.63
2022-11-14T08:02:14.689Z,12.43
2022-11-14T08:05:01.411Z,13.25
2022-11-14T08:07:50.258Z,13.88
2022-11-14T08:10:35.995Z,15.40
2022-11-14T08:13:36.637Z,16.00
2022-11-14T08:16:22.596Z,16.90
2022-11-14T08:19:08.455Z,18.45
2022-11-14T08:21:54.418Z,17.17
2022-11-14T08:24:40.510Z,17.88
2022-11-14T08:27:26.467Z,17.48
2022-11-14T08:30:13.273Z,18.10
2022-11-14T08:33:03.536Z,16.60
2022-11-14T08:35:49.287Z,16.10
2022-11-14T08:38:35.417Z,15.68
2022-11-14T08:41:21.592Z,15.65
2022-11-14T08:44:07.362Z,15.75
2022-11-14T08:46:53.229Z,15.18
2022-11-14T08:49:38.898Z,16.42
2022-11-14T08:52:24.737Z,16.90
2022-11-14T08:55:10.719Z,15.52
2022-11-14T08:57:56.257Z,15.38
2022-11-14T09:00:42.465Z,15.05
2022-11-14T09:03:28.167Z,14.68
2022-11-14T09:06:14.099Z,14.93
2022-11-14T09:09:00.177Z,14.43
2022-11-14T09:11:45.573Z,13.05
2022-11-14T09:14:31.232Z,11.68
2022-11-14T09:17:17.273Z,11.43
2022-11-14T09:20:03.508Z,12.23
2022-11-14T09:22:52.170Z,11.38
2022-11-14T09:25:38.702Z,10.90
2022-11-14T09:28:25.063Z,12.35
2022-11-14T09:31:13.522Z,11.30
2022-11-14T09:33:59.088Z,10.30
2022-11-14T09:36:45.135Z,10.70
2022-11-14T09:39:31.055Z,11.00
2022-11-14T09:42:44.271Z,10.85
2022-11-14T09:45:31.000Z,10.65
2022-11-14T09:48:22.523Z,10.77
2022-11-14T09:51:16.176Z,10.88
2022-11-14T09:54:29.471Z,12.20
2022-11-14T09:57:21.059Z,10.77
2022-11-14T10:00:19.309Z,10.95
2022-11-14T10:04:08.325Z,10.57
2022-11-14T10:07:42.740Z,11.68
2022-11-14T10:10:39.454Z,10.82
2022-11-14T10:14:00.888Z,11.07
2022-11-14T10:17:12.846Z,9.80
2022-11-14T10:20:32.760Z,11.93
2022-11-14T10:23:30.813Z,12.02
2022-11-14T10:26:31.399Z,12.02
2022-11-14T10:29:41.233Z,14.43
2022-11-14T10:33:18.275Z,14.50
2022-11-14T10:36:15.533Z,13.90
2022-11-14T10:39:41.690Z,14.18
2022-11-14T10:42:40.334Z,15.90
2022-11-14T10:45:38.999Z,15.60
2022-11-14T10:48:49.091Z,15.32
2022-11-14T10:55:00.232Z,15.80
2022-11-14T10:57:46.617Z,15.02
2022-11-14T11:00:32.515Z,15.63
2022-11-14T11:03:18.424Z,17.30
2022-11-14T11:06:04.239Z,16.80
2022-11-14T11:09:08.833Z,17.65
2022-11-14T11:11:59.025Z,13.52
2022-11-14T11:17:38.543Z,14.27
2022-11-14T11:20:36.159Z,13.52
2022-11-14T11:23:31.893Z,13.90
2022-11-14T11:26:28.791Z,20.75
2022-11-14T11:29:18.403Z,19.80
2022-11-14T11:32:04.662Z,19.83
2022-11-14T11:34:52.159Z,22.15
2022-11-14T11:37:56.040Z,22.95
2022-11-14T11:40:47.930Z,20.27
2022-11-14T11:43:41.432Z,21.42
2022-11-14T11:46:47.040Z,21.80
2022-11-14T11:49:53.850Z,20.70
2022-11-14T11:53:05.682Z,22.27
2022-11-14T11:56:00.289Z,21.48
2022-11-14T11:58:59.011Z,20.77
2022-11-14T12:01:44.937Z,22.27
2022-11-14T12:04:31.472Z,22.58
2022-11-14T12:07:30.222Z,22.75
2022-11-14T12:10:28.954Z,23.20
2022-11-14T12:14:05.319Z,23.65
2022-11-14T12:17:39.730Z,21.52
2022-11-14T12:20:53.105Z,22.10
2022-11-14T12:24:23.691Z,21.13
2022-11-14T12:27:22.499Z,20.98
2022-11-14T12:30:24.638Z,22.10
2022-11-14T12:33:17.379Z,25.33
2022-11-14T12:36:10.055Z,24.65
2022-11-14T12:38:57.218Z,25.45
2022-11-14T12:41:43.226Z,26.02
2022-11-14T12:44:29.168Z,23.45
2022-11-14T12:47:29.028Z,23.50
2022-11-14T12:50:38.924Z,25.88
2022-11-14T12:53:35.978Z,28.85
2022-11-14T12:56:31.017Z,24.50
2022-11-14T12:59:53.456Z,23.15
2022-11-14T13:03:11.566Z,21.88
2022-11-14T13:06:09.613Z,20.20
2022-11-14T13:09:22.791Z,19.70
2022-11-14T13:13:23.127Z,20.88
2022-11-14T13:16:49.155Z,20.42
2022-11-14T13:20:04.291Z,19.45
2022-11-14T13:22:50.343Z,20.15
2022-11-14T13:25:36.175Z,21.52
2022-11-14T13:28:51.238Z,19.33
2022-11-14T13:31:37.116Z,18.80
2022-11-14T13:35:00.769Z,19.42
2022-11-14T13:38:01.725Z,18.17
2022-11-14T13:41:24.016Z,19.92
2022-11-14T13:44:24.772Z,18.77
2022-11-14T13:47:47.614Z,20.57
2022-11-14T13:50:40.563Z,20.92
2022-11-14T13:53:30.333Z,20.58
2022-11-14T13:56:43.554Z,20.75
2022-11-14T14:00:18.364Z,23.08
2022-11-14T14:03:23.644Z,21.95
2022-11-14T14:06:20.012Z,21.70
2022-11-14T14:09:28.748Z,20.27
2022-11-14T14:12:42.383Z,20.88
2022-11-14T14:15:48.319Z,21.80
2022-11-14T14:18:58.821Z,25.73
2022-11-14T14:22:25.845Z,28.35
2022-11-14T14:25:26.787Z,24.25
2022-11-14T14:28:31.944Z,25.33
2022-11-14T14:31:25.036Z,25.88
2022-11-14T14:34:29.067Z,25.35
2022-11-14T14:37:21.653Z,30.05
2022-11-14T14:40:43.166Z,25.98
2022-11-14T14:43:35.786Z,25.83
2022-11-14T14:46:33.648Z,23.95
2022-11-14T14:49:35.311Z,31.25
2022-11-14T14:52:33.032Z,28.98
2022-11-14T14:55:29.125Z,28.80
2022-11-14T14:58:30.566Z,26.23
2022-11-14T15:01:21.435Z,30.08
2022-11-14T15:04:13.525Z,28.08
2022-11-14T15:06:59.714Z,30.15
2022-11-14T15:09:57.939Z,27.40
2022-11-14T15:12:44.748Z,26.23
2022-11-14T15:15:31.851Z,25.38
2022-11-14T15:18:29.833Z,24.67
2022-11-14T15:21:25.097Z,28.80
2022-11-14T15:24:20.559Z,28.25
2022-11-14T15:27:19.382Z,26.70
2022-11-14T15:30:19.632Z,25.52
2022-11-14T15:33:25.804Z,27.13
2022-11-14T15:36:19.752Z,26.00
2022-11-14T15:39:28.671Z,25.02
2022-11-14T15:42:28.932Z,27.13
2022-11-14T15:45:26.902Z,30.83
2022-11-14T15:48:19.160Z,32.22
2022-11-14T15:51:05.430Z,27.50
2022-11-14T15:53:53.511Z,24.63
2022-11-14T15:56:39.263Z,23.27
2022-11-14T15:59:27.641Z,22.80
2022-11-14T16:02:21.975Z,22.30
2022-11-14T16:05:12.602Z,19.67
2022-11-14T16:07:58.272Z,19.77
2022-11-14T16:10:44.253Z,18.35
2022-11-14T16:13:30.399Z,18.52
2022-11-14T16:16:16.459Z,16.15
2022-11-14T16:19:02.444Z,22.38
2022-11-14T16:21:48.540Z,25.50
2022-11-14T16:24:34.586Z,23.38
2022-11-14T16:27:20.389Z,29.75
2022-11-14T16:30:06.755Z,28.73
2022-11-14T16:32:53.014Z,29.67
2022-11-14T16:35:38.779Z,26.10
2022-11-14T16:38:24.515Z,25.02
2022-11-14T16:41:13.350Z,22.38
2022-11-14T16:43:59.502Z,24.00
2022-11-14T16:46:45.922Z,23.38
2022-11-14T16:49:31.323Z,20.88
2022-11-14T16:52:17.209Z,19.75
2022-11-14T16:55:02.909Z,17.90
2022-11-14T16:57:49.390Z,16.52
2022-11-14T17:00:35.925Z,18.00
2022-11-14T17:03:22.449Z,16.40
2022-11-14T17:06:12.644Z,17.73
2022-11-14T17:09:00.217Z,17.65
2022-11-14T17:11:45.953Z,16.20
2022-11-14T17:14:31.699Z,14.35
2022-11-14T17:17:18.168Z,13.50
2022-11-14T17:20:04.585Z,15.93
2022-11-14T17:22:50.422Z,19.02
2022-11-14T17:25:36.683Z,12.00
2022-11-14T17:28:22.811Z,11.68
2022-11-14T17:31:09.481Z,13.90
2022-11-14T17:33:58.335Z,14.38
2022-11-14T17:36:43.824Z,15.60
2022-11-14T17:39:29.989Z,10.40
2022-11-14T17:42:15.971Z,11.38
2022-11-14T17:45:02.144Z,10.10
2022-11-14T17:47:48.010Z,11.38
2022-11-14T17:50:37.633Z,10.23
2022-11-14T17:53:23.751Z,10.27
2022-11-14T17:56:19.628Z,12.80
2022-11-14T17:59:05.524Z,9.02
2022-11-14T18:01:52.418Z,9.00
2022-11-14T18:04:38.536Z,8.68
2022-11-14T18:07:24.659Z,10.20
2022-11-14T18:10:10.467Z,9.50
2022-11-14T18:12:56.592Z,9.00
2022-11-14T18:15:42.773Z,9.32
2022-11-14T18:18:34.514Z,10.15
2022-11-14T18:21:24.634Z,8.82
2022-11-14T18:24:14.128Z,9.98
2022-11-14T18:27:00.003Z,9.20
2022-11-14T18:29:46.210Z,11.02
2022-11-14T18:32:32.025Z,11.70
2022-11-14T18:35:18.046Z,10.98
2022-11-14T18:38:04.193Z,12.52
2022-11-14T18:40:55.831Z,11.68
2022-11-14T18:43:44.652Z,11.43
2022-11-14T18:46:37.151Z,12.57
2022-11-14T18:49:23.625Z,10.52
2022-11-14T18:52:14.198Z,10.18
2022-11-14T18:55:04.242Z,14.65
2022-11-14T18:57:49.757Z,12.32
2022-11-14T19:00:36.025Z,15.48
2022-11-14T19:03:22.205Z,11.88
2022-11-14T19:06:12.121Z,11.45
2022-11-14T19:09:13.599Z,10.00
2022-11-14T19:12:17.662Z,15.23
2022-11-14T19:15:03.591Z,10.65
2022-11-14T19:17:49.486Z,10.68
2022-11-14T19:20:35.303Z,10.73
2022-11-14T19:23:21.542Z,10.25
2022-11-14T19:26:07.363Z,11.50
2022-11-14T19:28:53.281Z,10.40
2022-11-14T19:31:39.933Z,10.50
2022-11-14T19:34:25.929Z,11.75
2022-11-14T19:37:11.869Z,11.30
2022-11-14T19:39:57.751Z,10.77
2022-11-14T19:42:43.671Z,10.13
2022-11-14T19:45:33.407Z,10.82
2022-11-14T19:48:19.220Z,12.17
2022-11-14T19:51:09.714Z,11.30
2022-11-14T19:53:58.387Z,13.80
2022-11-14T19:56:44.506Z,11.98
2022-11-14T19:59:30.367Z,10.38
2022-11-14T20:02:17.284Z,11.38
2022-11-14T20:05:03.255Z,10.00
2022-11-14T20:07:49.077Z,11.43
2022-11-14T20:10:47.599Z,10.07
2022-11-14T20:13:40.334Z,10.68
2022-11-14T20:16:29.810Z,10.35
2022-11-14T20:19:16.250Z,10.25
2022-11-14T20:22:02.428Z,11.73
2022-11-14T20:24:48.656Z,10.00
2022-11-14T20:27:34.391Z,10.02
2022-11-14T20:30:20.209Z,10.40
2022-11-14T20:33:07.779Z,10.05
2022-11-14T20:35:53.933Z,11.55
2022-11-14T20:38:39.688Z,11.40
2022-11-14T20:41:25.880Z,10.55
2022-11-14T20:44:11.836Z,10.23
2022-11-14T20:46:57.808Z,11.15
2022-11-14T20:49:44.423Z,11.25
2022-11-14T20:52:31.049Z,11.23
2022-11-14T20:55:17.347Z,11.68
2022-11-14T20:58:03.441Z,11.63
2022-11-14T21:00:52.967Z,10.25
2022-11-14T21:03:39.934Z,14.13
2022-11-14T21:06:25.904Z,10.13
2022-11-14T21:09:11.543Z,10.40
2022-11-14T21:11:57.566Z,9.70
2022-11-14T21:14:43.079Z,10.73
2022-11-14T21:17:28.895Z,9.45
2022-11-14T21:20:15.001Z,9.07
2022-11-14T21:23:00.854Z,8.90
2022-11-14T21:25:46.503Z,9.00
2022-11-14T21:28:34.112Z,9.10
2022-11-14T21:31:27.152Z,9.27
2022-11-14T21:34:16.741Z,8.23
2022-11-14T21:37:02.332Z,9.10
2022-11-14T21:39:49.052Z,8.25
2022-11-14T21:42:36.653Z,7.25
2022-11-14T21:45:22.548Z,8.18
2022-11-14T21:48:08.320Z,7.70
2022-11-14T21:50:53.918Z,9.23
2022-11-14T21:53:41.024Z,7.85
2022-11-14T21:56:30.340Z,8.25
2022-11-14T21:59:18.984Z,7.68
2022-11-14T22:02:23.434Z,7.50
2022-11-14T22:05:09.053Z,8.57
2022-11-14T22:07:54.929Z,8.63
2022-11-14T22:10:41.094Z,8.38
2022-11-14T22:13:30.499Z,7.82
2022-11-14T22:16:21.013Z,8.13
2022-11-14T22:19:07.017Z,9.48
2022-11-14T22:21:53.080Z,7.55
2022-11-14T22:24:39.050Z,8.35
2022-11-14T22:27:26.034Z,8.32
2022-11-14T22:30:12.238Z,7.47
2022-11-14T22:33:00.418Z,9.10
2022-11-14T22:35:46.533Z,7.97
2022-11-14T22:38:36.587Z,9.68
2022-11-14T22:41:32.704Z,9.02
2022-11-14T22:44:19.080Z,9.27
2022-11-14T22:47:04.906Z,8.73
2022-11-14T22:49:50.770Z,8.40
2022-11-14T22:52:36.810Z,8.32
2022-11-14T22:55:22.488Z,8.43
2022-11-14T22:58:08.696Z,8.98
2022-11-14T23:00:54.483Z,9.07
2022-11-14T23:03:40.964Z,7.57
2022-11-14T23:06:28.606Z,9.20
2022-11-14T23:09:14.543Z,8.65
2022-11-14T23:12:00.558Z,9.65
2022-11-14T23:14:46.283Z,9.35
2022-11-14T23:17:32.729Z,9.73
2022-11-14T23:20:18.890Z,9.45
2022-11-14T23:23:05.906Z,9.15
2022-11-14T23:25:51.795Z,10.25
2022-11-14T23:28:38.161Z,9.25
2022-11-14T23:31:25.228Z,9.48
2022-11-14T23:34:10.958Z,9.07
2022-11-14T23:36:56.646Z,8.52
2022-11-14T23:39:42.715Z,9.50
2022-11-14T23:42:28.710Z,9.15
2022-11-14T23:45:14.380Z,9.32
2022-11-14T23:47:59.886Z,9.60
2022-11-14T23:50:54.120Z,9.20
2022-11-14T23:53:40.244Z,8.32
2022-11-14T23:56:26.307Z,8.70
2022-11-14T23:59:11.960Z,9.57
